HOURLY OBS INDEX

062

Central Tablelands - north

MUDGEE AIRPORT AWS

Site: 062101
Alt: 471.0m
4km NE of MUDGEE


  Time     Wind        Temp  DP   Baro     Rain since   Rain past  Vis(m), Cloud(base in m), Weather
  local        km/h                         9am  last   hr   10m    
Wed 04:00   NE  9/ 17   1.7  1.4  1025.5    0.0   0.0   0.0   0.0   10000 
Wed 04:30   SE  7/ 11   2.6  2.3  1025.1    0.0   0.0   0.0   0.0   10000 
Wed 05:00    E  7/ 11   2.7  2.4  1025.2    0.0   0.0   0.0   0.0   10000 
Wed 05:30    S 13/ 17   6.5  6.2  1025.3    0.0   0.0   0.0   0.0   10000 
Wed 06:00  SSE 13/ 17   7.5  5.6  1025.7    0.0   0.0   0.0   0.0   10000 
Wed 06:30   NE  9/ 11   6.6  5.6  1026.3    0.0   0.0   0.0   0.0   10000 
Wed 07:00  ENE  6/  9   5.6  4.4  1026.6    0.0   0.0   0.0   0.0   10000 
Wed 07:30   SE  7/ 20   8.2  6.7  1026.8    0.0   0.0   0.0   0.0   10000 
Wed 08:00   SE 11/ 20   9.4  5.6  1026.7    0.0   0.0   0.0   0.0   10000 
Wed 08:30   SE 13/ 30  10.2  5.2  1026.6    0.0   0.0   0.0   0.0   10000 
Wed 09:00  ESE 20/ 33  10.8  5.3  1026.5    0.0   0.0   0.0   0.0   10000 
Wed 09:30   SE 20/ 32  11.5  5.2  1027.0    0.0   0.0   0.0   0.0   10000 
Wed 09:30   SE 20/ 32  11.5  5.2  1027.0    0.0   0.0  ----   0.0   10000 

NULLO MOUNTAIN AWS

Site: 062100
Alt: 1130.0m
62km ESE of MUDGEE


  Time     Wind        Temp  DP   Baro     Rain since   Rain past  Vis(m), Cloud(base in m), Weather
  local        km/h                         9am  last   hr   10m    
Wed 04:00  SSE 19/ 32   5.0  4.9  ------    0.6   0.2   0.2   0.0   ----- 
Wed 04:30  SSE 19/ 30   4.9  4.8  ------    0.6   0.0   0.2   0.0   ----- 
Wed 05:00   SE 19/ 37   4.8  4.5  ------    0.6   0.0   0.0   0.0   ----- 
Wed 05:30   SE 24/ 43   4.7  4.1  ------    0.6   0.0   0.0   0.0   ----- 
Wed 06:00   SE 22/ 32   4.5  3.9  ------    0.6   0.0   0.0   0.0   ----- 
Wed 06:30   SE 22/ 37   4.6  4.0  ------    0.6   0.0   0.0   0.0   ----- 
Wed 07:00   SE 28/ 41   4.4  3.7  ------    0.6   0.0   0.0   0.0   ----- 
Wed 07:16   SE 28/ 48   4.4  3.8  ------    0.6   0.0  ----   0.0   ----- 
Wed 07:30   SE 28/ 45   4.4  3.5  ------    0.6   0.0   0.0   0.0   ----- 
Wed 07:33   SE 28/ 46   4.4  3.5  ------    0.6   0.0  ----   0.0   ----- 
Wed 08:00   SE 26/ 41   4.4  3.5  ------    0.6   0.0   0.0   0.0   ----- 
Wed 08:30   SE 33/ 48   4.6  3.7  ------    0.6   0.0   0.0   0.0   ----- 
Wed 08:52   SE 30/ 50   4.9  4.0  ------    0.6   0.0  ----   0.0   ----- 
Wed 09:00  ESE 26/ 41   5.1  4.2  ------    0.6   0.0   0.0   0.0   ----- 
Wed 09:30  ESE 24/ 37   5.9  4.1  ------    0.0   0.0   0.0   0.0   ----- 
Wed 09:30  ESE 24/ 37   5.9  4.1  ------    0.0   0.0  ----   0.0   ----- 
Wed 09:44  ESE 28/ 48   5.9  3.7  ------    0.0   0.0   0.0   0.0   -----